createdAt,value
2022-11-02T00:02:11.894Z,87.00
2022-11-02T00:04:38.443Z,87.00
2022-11-02T00:07:04.959Z,87.00
2022-11-02T00:09:31.468Z,87.00
2022-11-02T00:11:58.071Z,87.00
2022-11-02T00:14:24.601Z,87.00
2022-11-02T00:16:51.629Z,87.00
2022-11-02T00:19:18.291Z,87.00
2022-11-02T00:21:45.052Z,87.00
2022-11-02T00:24:12.419Z,87.00
2022-11-02T00:26:39.034Z,87.10
2022-11-02T00:29:07.406Z,87.10
2022-11-02T00:31:34.021Z,87.10
2022-11-02T00:34:00.557Z,87.10
2022-11-02T00:36:27.938Z,87.10
2022-11-02T00:38:54.513Z,87.10
2022-11-02T00:41:21.944Z,87.20
2022-11-02T00:43:48.476Z,87.20
2022-11-02T00:46:15.013Z,87.20
2022-11-02T00:48:41.552Z,87.10
2022-11-02T00:51:08.076Z,87.30
2022-11-02T00:53:34.601Z,87.20
2022-11-02T00:56:01.154Z,87.10
2022-11-02T00:58:27.663Z,87.10
2022-11-02T01:00:56.383Z,87.20
2022-11-02T01:03:22.983Z,87.80
2022-11-02T01:05:49.534Z,87.20
2022-11-02T01:08:16.057Z,87.20
2022-11-02T01:10:45.586Z,87.20
2022-11-02T01:13:15.778Z,87.20
2022-11-02T01:15:43.015Z,87.30
2022-11-02T01:18:09.539Z,87.30
2022-11-02T01:20:36.070Z,87.20
2022-11-02T01:23:02.626Z,87.30
2022-11-02T01:25:29.330Z,87.30
2022-11-02T01:27:55.872Z,87.30
2022-11-02T01:30:22.400Z,87.30
2022-11-02T01:32:48.957Z,87.30
2022-11-02T01:35:16.602Z,87.30
2022-11-02T01:37:43.305Z,87.30
2022-11-02T01:40:10.353Z,87.40
2022-11-02T01:42:36.871Z,87.40
2022-11-02T01:45:03.775Z,87.30
2022-11-02T01:47:35.330Z,87.40
2022-11-02T01:50:12.874Z,87.40
2022-11-02T01:52:41.241Z,87.40
2022-11-02T01:55:19.179Z,87.50
2022-11-02T01:57:52.370Z,87.40
2022-11-02T02:00:19.759Z,87.50
2022-11-02T02:02:59.495Z,87.50
2022-11-02T02:05:26.284Z,87.40
2022-11-02T02:07:53.739Z,87.60
2022-11-02T02:10:20.426Z,87.50
2022-11-02T02:12:47.754Z,87.50
2022-11-02T02:15:14.792Z,87.50
2022-11-02T02:17:47.631Z,87.50
2022-11-02T02:20:44.032Z,87.50
2022-11-02T02:23:22.491Z,87.50
2022-11-02T02:26:13.641Z,87.50
2022-11-02T02:28:53.477Z,87.60
2022-11-02T02:31:31.848Z,87.50
2022-11-02T02:34:19.056Z,87.60
2022-11-02T02:37:08.767Z,87.50
2022-11-02T02:39:51.859Z,87.60
2022-11-02T02:42:36.550Z,87.60
2022-11-02T02:45:40.566Z,87.60
2022-11-02T02:48:24.745Z,87.60
2022-11-02T02:50:56.026Z,87.60
2022-11-02T02:53:33.196Z,87.60
2022-11-02T02:56:02.136Z,87.60
2022-11-02T02:58:43.774Z,87.60
2022-11-02T03:01:14.207Z,87.70
2022-11-02T03:03:42.711Z,87.60
2022-11-02T03:06:09.199Z,87.70
2022-11-02T03:08:39.496Z,87.70
2022-11-02T03:11:14.096Z,87.70
2022-11-02T03:14:04.515Z,87.70
2022-11-02T03:16:49.903Z,87.70
2022-11-02T03:19:35.012Z,87.80
2022-11-02T03:22:18.468Z,87.80
2022-11-02T03:25:13.119Z,87.80
2022-11-02T03:27:51.515Z,87.80
2022-11-02T03:30:21.002Z,87.80
2022-11-02T03:33:07.612Z,87.80
2022-11-02T03:35:47.829Z,87.80
2022-11-02T03:38:21.722Z,87.80
2022-11-02T03:40:50.998Z,87.90
2022-11-02T03:43:20.496Z,87.80
2022-11-02T03:45:54.653Z,87.80
2022-11-02T03:48:25.801Z,87.90
2022-11-02T03:50:54.665Z,87.90
2022-11-02T03:53:34.859Z,87.80
2022-11-02T03:56:09.820Z,87.90
2022-11-02T03:58:36.579Z,87.90
2022-11-02T04:01:08.039Z,87.90
2022-11-02T04:03:42.891Z,87.90
2022-11-02T04:06:09.638Z,87.90
2022-11-02T04:08:39.438Z,87.90
2022-11-02T04:11:25.221Z,88.00
2022-11-02T04:14:10.563Z,87.90
2022-11-02T04:16:37.179Z,88.00
2022-11-02T04:19:22.625Z,88.00
2022-11-02T04:22:09.230Z,87.90
2022-11-02T04:24:54.624Z,88.00
2022-11-02T04:27:21.512Z,88.00
2022-11-02T04:29:48.725Z,87.90
2022-11-02T04:32:35.581Z,88.00
2022-11-02T04:35:03.172Z,88.00
2022-11-02T04:37:48.357Z,88.00
2022-11-02T04:40:15.018Z,88.00
2022-11-02T04:42:45.788Z,88.00
2022-11-02T04:45:12.379Z,88.00
2022-11-02T04:47:38.888Z,88.10
2022-11-02T04:50:05.839Z,88.10
2022-11-02T04:52:32.446Z,88.00
2022-11-02T04:54:59.016Z,88.30
2022-11-02T04:57:25.616Z,88.00
2022-11-02T04:59:52.149Z,88.00
2022-11-02T05:02:18.788Z,88.00
2022-11-02T05:04:45.464Z,88.00
2022-11-02T05:07:12.007Z,88.10
2022-11-02T05:09:38.558Z,88.10
2022-11-02T05:12:05.366Z,88.10
2022-11-02T05:14:31.991Z,88.10
2022-11-02T05:16:58.692Z,88.10
2022-11-02T05:19:25.342Z,88.10
2022-11-02T05:21:51.902Z,88.10
2022-11-02T05:24:18.446Z,88.10
2022-11-02T05:26:47.572Z,88.10
2022-11-02T05:29:16.379Z,88.10
2022-11-02T05:31:42.895Z,88.10
2022-11-02T05:34:09.413Z,88.10
2022-11-02T05:36:36.045Z,88.10
2022-11-02T05:39:02.639Z,88.10
2022-11-02T05:41:29.232Z,88.10
2022-11-02T05:43:55.909Z,88.10
2022-11-02T05:46:22.431Z,88.10
2022-11-02T05:48:48.952Z,88.10
2022-11-02T05:51:15.786Z,88.20
2022-11-02T05:53:42.406Z,83.50
2022-11-02T05:56:10.224Z,83.00
2022-11-02T05:58:37.238Z,82.30
2022-11-02T06:01:06.159Z,83.60
2022-11-02T06:03:36.555Z,83.30
2022-11-02T06:06:05.945Z,83.60
2022-11-02T06:08:37.324Z,83.20
2022-11-02T06:11:05.787Z,83.00
2022-11-02T06:13:32.513Z,83.00
2022-11-02T06:16:00.587Z,83.50
2022-11-02T06:18:27.230Z,83.70
2022-11-02T06:20:53.881Z,84.00
2022-11-02T06:23:20.491Z,84.60
2022-11-02T06:25:54.611Z,84.60
2022-11-02T06:28:21.413Z,84.60
2022-11-02T06:30:49.308Z,84.60
2022-11-02T06:33:19.903Z,84.60
2022-11-02T06:35:48.187Z,84.80
2022-11-02T06:38:15.413Z,84.70
2022-11-02T06:40:42.248Z,84.90
2022-11-02T06:43:16.481Z,84.80
2022-11-02T06:45:44.973Z,85.00
2022-11-02T06:48:11.508Z,85.00
2022-11-02T06:50:38.267Z,85.10
2022-11-02T06:53:05.013Z,85.20
2022-11-02T06:55:31.817Z,85.00
2022-11-02T06:57:58.355Z,85.20
2022-11-02T07:00:25.331Z,85.30
2022-11-02T07:03:03.539Z,85.40
2022-11-02T07:05:32.441Z,85.40
2022-11-02T07:07:59.331Z,85.50
2022-11-02T07:10:26.354Z,85.50
2022-11-02T07:12:54.753Z,85.60
2022-11-02T07:15:22.423Z,85.60
2022-11-02T07:17:48.983Z,85.70
2022-11-02T07:20:16.151Z,85.70
2022-11-02T07:22:42.961Z,85.70
2022-11-02T07:25:09.606Z,85.80
2022-11-02T07:27:40.044Z,85.80
2022-11-02T07:30:07.817Z,85.80
2022-11-02T07:32:44.343Z,85.90
2022-11-02T07:35:12.728Z,86.00
2022-11-02T07:37:39.900Z,86.00
2022-11-02T07:40:08.891Z,86.10
2022-11-02T07:42:35.775Z,86.10
2022-11-02T07:45:02.378Z,86.10
2022-11-02T07:47:30.119Z,86.10
2022-11-02T07:49:59.452Z,86.20
2022-11-02T07:52:26.525Z,86.20
2022-11-02T07:54:55.549Z,86.30
2022-11-02T07:57:23.149Z,86.30
2022-11-02T07:59:49.715Z,86.40
2022-11-02T08:02:16.259Z,86.70
2022-11-02T08:04:45.016Z,86.40
2022-11-02T08:07:12.470Z,86.50
2022-11-02T08:09:39.217Z,86.50
2022-11-02T08:12:06.047Z,86.60
2022-11-02T08:14:32.605Z,86.60
2022-11-02T08:16:59.131Z,86.70
2022-11-02T08:19:25.700Z,86.80
2022-11-02T08:21:52.828Z,86.80
2022-11-02T08:24:19.385Z,86.80
2022-11-02T08:26:47.514Z,86.90
2022-11-02T08:29:15.154Z,86.10
2022-11-02T08:31:41.809Z,86.90
2022-11-02T08:34:09.431Z,87.00
2022-11-02T08:36:36.745Z,87.10
2022-11-02T08:39:03.618Z,87.10
2022-11-02T08:41:30.127Z,87.10
2022-11-02T08:43:57.441Z,87.20
2022-11-02T08:46:23.963Z,87.20
2022-11-02T08:48:50.977Z,87.30
2022-11-02T08:51:17.545Z,87.10
2022-11-02T08:53:50.156Z,87.30
2022-11-02T08:56:16.904Z,87.00
2022-11-02T08:58:43.429Z,87.00
2022-11-02T09:01:10.066Z,87.40
2022-11-02T09:03:36.675Z,87.40
2022-11-02T09:06:03.243Z,87.40
2022-11-02T09:08:30.562Z,87.30
2022-11-02T09:11:02.665Z,87.30
2022-11-02T09:13:29.815Z,87.30
2022-11-02T09:15:58.593Z,87.30
2022-11-02T09:18:25.409Z,87.40
2022-11-02T09:20:52.080Z,87.30
2022-11-02T09:23:20.366Z,87.30
2022-11-02T09:25:47.634Z,87.40
2022-11-02T09:28:15.540Z,87.50
2022-11-02T09:30:42.860Z,85.70
2022-11-02T09:33:09.854Z,82.50
2022-11-02T09:35:39.187Z,80.40
2022-11-02T09:38:05.873Z,81.30
2022-11-02T09:40:43.395Z,79.90
2022-11-02T09:43:32.387Z,81.00
2022-11-02T09:46:09.343Z,80.50
2022-11-02T09:48:58.630Z,80.90
2022-11-02T09:51:38.594Z,80.50
2022-11-02T09:54:13.231Z,80.50
2022-11-02T09:56:43.563Z,80.80
2022-11-02T09:59:17.558Z,80.80
2022-11-02T10:01:50.287Z,80.10
2022-11-02T10:04:43.244Z,79.70
2022-11-02T10:07:40.824Z,79.90
2022-11-02T10:10:28.930Z,79.10
2022-11-02T10:13:17.808Z,79.50
2022-11-02T10:15:52.474Z,79.50
2022-11-02T10:18:24.111Z,78.90
2022-11-02T10:20:58.314Z,79.20
2022-11-02T10:23:39.837Z,78.60
2022-11-02T10:26:12.992Z,78.80
2022-11-02T10:28:42.055Z,79.30
2022-11-02T10:31:35.098Z,77.90
2022-11-02T10:34:20.622Z,78.00
2022-11-02T10:37:06.739Z,78.60
2022-11-02T10:39:50.404Z,78.10
2022-11-02T10:42:22.199Z,77.60
2022-11-02T10:45:05.842Z,77.60
2022-11-02T10:47:56.363Z,78.50
2022-11-02T10:50:46.956Z,77.70
2022-11-02T10:56:19.486Z,77.30
2022-11-02T10:59:03.632Z,78.10
2022-11-02T11:01:31.791Z,78.90
2022-11-02T11:04:00.356Z,79.50
2022-11-02T11:06:29.197Z,79.80
2022-11-02T11:09:01.181Z,80.30
2022-11-02T11:11:32.849Z,80.30
2022-11-02T11:19:51.895Z,81.00
2022-11-02T11:22:24.172Z,81.20
2022-11-02T11:24:50.784Z,81.50
2022-11-02T11:27:23.731Z,81.50
2022-11-02T11:29:56.460Z,81.70
2022-11-02T11:32:30.742Z,82.00
2022-11-02T11:35:03.760Z,82.40
2022-11-02T11:37:31.039Z,82.60
2022-11-02T11:40:16.084Z,83.00
2022-11-02T11:42:43.388Z,83.00
2022-11-02T11:45:27.151Z,83.30
2022-11-02T11:48:07.933Z,83.50
2022-11-02T11:50:34.617Z,83.70
2022-11-02T11:53:23.005Z,83.90
2022-11-02T11:55:54.816Z,84.10
2022-11-02T11:58:32.858Z,83.90
2022-11-02T12:01:18.120Z,84.00
2022-11-02T12:03:55.479Z,84.10
2022-11-02T12:06:55.256Z,84.20
2022-11-02T12:09:41.274Z,84.40
2022-11-02T12:12:35.774Z,84.70
2022-11-02T12:15:19.945Z,84.70
2022-11-02T12:18:08.657Z,84.90
2022-11-02T12:20:57.111Z,84.90
2022-11-02T12:23:48.207Z,85.00
2022-11-02T12:26:27.739Z,85.10
2022-11-02T12:29:01.176Z,85.00
2022-11-02T12:31:38.434Z,85.20
2022-11-02T12:34:21.888Z,85.30
2022-11-02T12:37:41.422Z,85.60
2022-11-02T12:40:21.220Z,85.60
2022-11-02T12:43:33.647Z,85.80
2022-11-02T12:46:03.289Z,86.10
2022-11-02T12:48:45.903Z,86.30
2022-11-02T12:51:17.841Z,86.40
2022-11-02T12:53:46.605Z,86.60
2022-11-02T12:56:19.540Z,86.70
2022-11-02T12:58:46.372Z,86.90
2022-11-02T13:01:35.215Z,86.90
2022-11-02T13:04:18.433Z,87.00
2022-11-02T13:06:48.621Z,87.20
2022-11-02T13:09:38.287Z,87.30
2022-11-02T13:12:18.544Z,87.40
2022-11-02T13:14:47.955Z,87.50
2022-11-02T13:17:22.646Z,87.50
2022-11-02T13:19:54.129Z,87.50
2022-11-02T13:22:28.159Z,87.60
2022-11-02T13:25:06.156Z,87.60
2022-11-02T13:27:39.105Z,87.50
2022-11-02T13:30:18.086Z,87.60
2022-11-02T13:32:50.007Z,87.50
2022-11-02T13:35:23.803Z,87.50
2022-11-02T13:37:56.292Z,87.50
2022-11-02T13:40:36.243Z,87.60
2022-11-02T13:43:13.197Z,87.40
2022-11-02T13:46:04.668Z,87.50
2022-11-02T13:48:39.328Z,87.50
2022-11-02T13:51:15.469Z,87.50
2022-11-02T13:53:52.151Z,87.30
2022-11-02T13:56:28.918Z,87.40
2022-11-02T13:59:03.252Z,87.30
2022-11-02T14:01:32.414Z,87.30
2022-11-02T14:04:06.476Z,87.30
2022-11-02T14:06:44.139Z,87.30
2022-11-02T14:09:20.502Z,87.20
2022-11-02T14:11:49.199Z,87.30
2022-11-02T14:14:24.717Z,87.10
2022-11-02T14:16:51.289Z,87.30
2022-11-02T14:19:19.212Z,87.20
2022-11-02T14:22:12.974Z,87.30
2022-11-02T14:24:39.612Z,88.00
2022-11-02T14:27:11.926Z,87.40
2022-11-02T14:29:47.130Z,87.30
2022-11-02T14:32:16.811Z,87.00
2022-11-02T14:35:27.077Z,87.40
2022-11-02T14:38:16.053Z,87.20
2022-11-02T14:41:00.465Z,87.00
2022-11-02T14:44:06.082Z,86.80
2022-11-02T14:47:01.226Z,87.00
2022-11-02T14:49:36.791Z,86.90
2022-11-02T14:52:15.291Z,86.90
2022-11-02T14:54:51.796Z,86.90
2022-11-02T14:57:29.577Z,86.90
2022-11-02T14:59:59.207Z,86.90
2022-11-02T15:02:40.284Z,86.90
2022-11-02T15:05:39.770Z,86.90
2022-11-02T15:08:09.280Z,86.90
2022-11-02T15:10:41.934Z,83.90
2022-11-02T15:13:20.616Z,86.70
2022-11-02T15:15:50.252Z,86.70
2022-11-02T15:18:34.772Z,82.50
2022-11-02T15:21:10.571Z,83.80
2022-11-02T15:24:15.562Z,85.90
2022-11-02T15:26:59.201Z,85.80
2022-11-02T15:29:32.222Z,85.30
2022-11-02T15:32:00.954Z,84.80
2022-11-02T15:34:42.468Z,84.30
2022-11-02T15:37:18.732Z,79.30
2022-11-02T15:39:56.880Z,79.10
2022-11-02T15:42:35.888Z,79.40
2022-11-02T15:45:56.904Z,82.10
2022-11-02T15:48:56.526Z,83.60
2022-11-02T15:51:35.083Z,84.00
2022-11-02T15:54:24.692Z,84.10
2022-11-02T15:57:13.801Z,84.10
2022-11-02T16:00:30.305Z,83.90
2022-11-02T16:03:17.627Z,84.10
2022-11-02T16:05:47.328Z,84.00
2022-11-02T16:08:34.134Z,84.50
2022-11-02T16:11:20.222Z,84.70
2022-11-02T16:14:07.618Z,84.50
2022-11-02T16:16:46.382Z,84.40
2022-11-02T16:19:20.564Z,84.30
2022-11-02T16:21:49.053Z,84.30
2022-11-02T16:24:16.196Z,84.70
2022-11-02T16:26:44.762Z,84.80
2022-11-02T16:29:11.944Z,84.80
2022-11-02T16:31:41.051Z,84.80
2022-11-02T16:34:28.347Z,84.90
2022-11-02T16:36:55.390Z,84.30
2022-11-02T16:39:36.405Z,83.90
2022-11-02T16:42:09.445Z,83.90
2022-11-02T16:44:36.303Z,84.90
2022-11-02T16:47:09.535Z,84.20
2022-11-02T16:49:57.510Z,84.40
2022-11-02T16:52:32.947Z,85.00
2022-11-02T16:54:59.643Z,85.30
2022-11-02T16:57:31.817Z,83.90
2022-11-02T17:00:11.305Z,85.30
2022-11-02T17:02:42.822Z,85.30
2022-11-02T17:05:20.043Z,85.30
2022-11-02T17:08:05.273Z,85.40
2022-11-02T17:10:34.500Z,85.20
2022-11-02T17:13:02.852Z,85.50
2022-11-02T17:15:32.233Z,85.50
2022-11-02T17:18:08.260Z,85.50
2022-11-02T17:20:37.024Z,85.80
2022-11-02T17:23:06.832Z,85.80
2022-11-02T17:25:38.588Z,86.00
2022-11-02T17:28:40.741Z,86.00
2022-11-02T17:31:18.721Z,86.00
2022-11-02T17:33:46.350Z,86.00
2022-11-02T17:36:14.043Z,85.90
2022-11-02T17:38:40.628Z,85.90
2022-11-02T17:41:30.270Z,85.90
2022-11-02T17:43:59.727Z,85.90
2022-11-02T17:46:26.309Z,85.70
2022-11-02T17:48:52.827Z,86.00
2022-11-02T17:51:24.063Z,86.10
2022-11-02T17:53:50.770Z,85.50
2022-11-02T17:56:17.371Z,86.20
2022-11-02T17:58:43.921Z,82.20
2022-11-02T18:01:12.660Z,81.90
2022-11-02T18:03:39.557Z,83.30
2022-11-02T18:06:06.487Z,85.90
2022-11-02T18:08:53.004Z,86.20
2022-11-02T18:11:24.885Z,86.20
2022-11-02T18:13:52.748Z,86.20
2022-11-02T18:16:19.369Z,86.10
2022-11-02T18:18:45.881Z,86.00
2022-11-02T18:21:12.748Z,86.10
2022-11-02T18:23:40.758Z,86.10
2022-11-02T18:26:11.739Z,86.20
2022-11-02T18:28:38.805Z,86.20
2022-11-02T18:31:06.795Z,86.20
2022-11-02T18:33:33.532Z,86.40
2022-11-02T18:36:05.145Z,86.40
2022-11-02T18:38:31.700Z,86.40
2022-11-02T18:41:26.033Z,86.50
2022-11-02T18:43:53.128Z,86.50
2022-11-02T18:46:19.783Z,87.00
2022-11-02T18:48:46.797Z,86.60
2022-11-02T18:51:13.348Z,86.60
2022-11-02T18:53:39.871Z,86.60
2022-11-02T18:56:07.865Z,86.70
2022-11-02T18:58:34.405Z,86.80
2022-11-02T19:01:08.780Z,86.70
2022-11-02T19:03:38.958Z,86.70
2022-11-02T19:06:24.152Z,87.30
2022-11-02T19:09:09.518Z,86.90
2022-11-02T19:11:36.546Z,86.90
2022-11-02T19:14:04.968Z,86.90
2022-11-02T19:16:32.629Z,86.90
2022-11-02T19:18:59.296Z,86.90
2022-11-02T19:21:25.803Z,86.90
2022-11-02T19:23:52.340Z,86.90
2022-11-02T19:26:18.881Z,87.00
2022-11-02T19:28:45.422Z,87.00
2022-11-02T19:31:11.999Z,87.10
2022-11-02T19:33:38.772Z,87.00
2022-11-02T19:36:06.149Z,87.00
2022-11-02T19:38:39.739Z,87.10
2022-11-02T19:41:11.754Z,87.10
2022-11-02T19:43:39.838Z,87.10
2022-11-02T19:46:18.197Z,87.10
2022-11-02T19:48:45.138Z,87.80
2022-11-02T19:51:17.455Z,87.20
2022-11-02T19:53:51.543Z,87.10
2022-11-02T19:56:19.476Z,87.20
2022-11-02T19:58:47.940Z,87.20
2022-11-02T20:01:17.038Z,87.20
2022-11-02T20:03:44.556Z,87.20
2022-11-02T20:06:13.921Z,87.20
2022-11-02T20:08:40.941Z,87.30
2022-11-02T20:11:13.454Z,87.30
2022-11-02T20:13:42.343Z,87.30
2022-11-02T20:16:10.845Z,87.30
2022-11-02T20:18:39.748Z,87.40
2022-11-02T20:21:12.006Z,87.90
2022-11-02T20:23:39.910Z,87.30
2022-11-02T20:26:08.884Z,87.40
2022-11-02T20:28:40.448Z,87.30
2022-11-02T20:31:12.235Z,87.30
2022-11-02T20:33:44.201Z,87.40
2022-11-02T20:36:11.326Z,87.40
2022-11-02T20:38:38.198Z,87.30
2022-11-02T20:41:06.021Z,87.30
2022-11-02T20:43:32.732Z,87.30
2022-11-02T20:46:36.011Z,87.30
2022-11-02T20:49:01.461Z,87.30
2022-11-02T20:51:35.492Z,87.30
2022-11-02T20:54:03.150Z,87.40
2022-11-02T20:56:29.786Z,87.40
2022-11-02T20:58:56.332Z,87.40
2022-11-02T21:01:22.975Z,87.30
2022-11-02T21:03:49.571Z,87.30
2022-11-02T21:06:16.127Z,87.40
2022-11-02T21:08:43.388Z,87.50
2022-11-02T21:11:29.484Z,87.40
2022-11-02T21:13:56.790Z,87.50
2022-11-02T21:16:23.670Z,87.40
2022-11-02T21:18:50.230Z,87.50
2022-11-02T21:21:19.016Z,87.40
2022-11-02T21:23:46.132Z,87.50
2022-11-02T21:26:14.093Z,87.50
2022-11-02T21:28:44.457Z,87.70
2022-11-02T21:31:16.990Z,87.70
2022-11-02T21:33:45.451Z,87.80
2022-11-02T21:36:12.798Z,88.30
2022-11-02T21:38:39.984Z,87.70
2022-11-02T21:41:08.950Z,87.70
2022-11-02T21:43:37.344Z,87.80
2022-11-02T21:46:05.890Z,87.90
2022-11-02T21:48:35.178Z,88.50
2022-11-02T21:51:14.025Z,87.90
2022-11-02T21:53:42.640Z,88.00
2022-11-02T21:56:25.460Z,87.80
2022-11-02T21:58:53.640Z,87.90
2022-11-02T22:01:40.491Z,87.90
2022-11-02T22:04:08.332Z,87.90
2022-11-02T22:06:37.373Z,87.90
2022-11-02T22:09:05.414Z,88.00
2022-11-02T22:11:32.151Z,87.90
2022-11-02T22:14:00.482Z,88.00
2022-11-02T22:16:31.520Z,88.10
2022-11-02T22:18:59.943Z,88.00
2022-11-02T22:21:28.637Z,88.10
2022-11-02T22:23:56.337Z,88.10
2022-11-02T22:26:24.853Z,88.10
2022-11-02T22:28:51.708Z,88.30
2022-11-02T22:31:21.895Z,88.10
2022-11-02T22:33:52.319Z,88.10
2022-11-02T22:36:20.936Z,88.10
2022-11-02T22:38:54.072Z,88.30
2022-11-02T22:41:25.156Z,88.30
2022-11-02T22:43:54.756Z,88.20
2022-11-02T22:46:22.499Z,88.20
2022-11-02T22:48:51.995Z,88.30
2022-11-02T22:51:20.821Z,88.30
2022-11-02T22:53:48.264Z,88.20
2022-11-02T22:56:16.688Z,88.20
2022-11-02T22:58:45.358Z,88.20
2022-11-02T23:01:18.217Z,88.20
2022-11-02T23:03:45.284Z,88.00
2022-11-02T23:06:12.620Z,87.00
2022-11-02T23:08:46.952Z,78.70
2022-11-02T23:11:21.518Z,82.20
2022-11-02T23:14:00.284Z,84.70
2022-11-02T23:16:28.189Z,86.50
2022-11-02T23:19:27.333Z,87.10
2022-11-02T23:22:29.328Z,87.20
2022-11-02T23:25:14.852Z,87.10
2022-11-02T23:28:14.485Z,87.10
2022-11-02T23:30:59.979Z,87.10
2022-11-02T23:33:36.049Z,87.10
2022-11-02T23:36:13.118Z,87.10
2022-11-02T23:39:02.789Z,87.10
2022-11-02T23:41:30.668Z,87.10
2022-11-02T23:44:13.730Z,87.00
2022-11-02T23:46:45.265Z,87.00
2022-11-02T23:49:12.843Z,87.00
2022-11-02T23:51:57.938Z,87.00
2022-11-02T23:54:43.271Z,87.00
2022-11-02T23:57:09.813Z,87.10
2022-11-02T23:59:36.379Z,87.00
